Time;durP1;ratioP1;P1;durP2;ratioP2;P2;SDS_P1;SDS_P2;PMS_P1;PMS_P2;Temp;Humidity;BMP_temperature;BMP_pressure;BME280_temperature;BME280_humidity;BME280_pressure;Samples;Min_cycle;Max_cycle;Signal;HPM_P1;HPM_P2
2022/01/16 00:00:26;;;;;;;32.83;25.83;;;7.10;76.90;;;9.70;58.84;102153.78;5073098;28;20718;-61
2022/01/16 00:05:22;;;;;;;29.93;23.27;;;7.10;76.60;;;9.71;59.42;102145.75;5073801;28;20550;-61
2022/01/16 00:07:52;;;;;;;30.80;23.50;;;7.10;76.80;;;9.74;58.87;102144.63;5073948;28;20272;-59
2022/01/16 00:10:21;;;;;;;28.97;22.60;;;7.10;76.80;;;9.70;59.12;102143.25;5072566;28;20217;-61
2022/01/16 00:12:50;;;;;;;26.63;21.33;;;7.10;77.00;;;9.71;59.08;102134.38;5072547;28;20200;-61
2022/01/16 00:15:20;;;;;;;26.80;22.13;;;7.10;76.80;;;9.72;58.98;102120.28;5073745;28;20190;-61
2022/01/16 00:17:55;;;;;;;27.13;22.10;;;7.00;77.00;;;9.72;59.19;102141.31;5072929;28;20193;-61
2022/01/16 00:20:25;;;;;;;25.33;19.43;;;7.00;77.30;;;9.75;59.40;102148.91;5073433;28;20272;-61
2022/01/16 00:22:55;;;;;;;21.77;17.50;;;7.00;77.30;;;9.78;59.46;102143.41;5072710;28;20189;-62
2022/01/16 00:25:23;;;;;;;19.10;15.33;;;7.10;77.30;;;9.79;59.35;102147.69;5073801;28;20213;-61
2022/01/16 00:27:51;;;;;;;17.10;13.63;;;7.10;77.30;;;9.82;58.85;102160.56;5073555;28;20659;-61
2022/01/16 00:30:19;;;;;;;17.47;13.80;;;7.10;77.30;;;9.80;58.71;102154.59;5072067;28;20642;-61
2022/01/16 00:32:47;;;;;;;15.83;12.40;;;7.10;77.30;;;9.82;58.62;102168.44;5071323;28;20618;-61
2022/01/16 00:35:14;;;;;;;15.87;13.57;;;7.00;77.10;;;9.84;59.24;102166.53;5073496;28;20286;-59
2022/01/16 00:37:42;;;;;;;16.97;14.03;;;7.00;77.30;;;9.87;59.48;102167.09;5073548;28;20642;-61
2022/01/16 00:40:12;;;;;;;14.07;12.33;;;7.10;77.70;;;9.88;59.46;102155.63;5072460;28;20192;-59
2022/01/16 00:42:39;;;;;;;15.37;12.90;;;7.10;77.50;;;9.83;59.34;102159.59;5073226;28;20195;-59
2022/01/16 00:45:13;;;;;;;16.23;13.33;;;7.10;77.40;;;9.73;59.18;102153.47;5073568;28;20184;-59
2022/01/16 00:47:40;;;;;;;16.40;13.53;;;7.10;77.20;;;9.68;59.24;102139.91;5073873;28;20267;-59
2022/01/16 00:50:09;;;;;;;15.27;11.93;;;7.10;77.30;;;9.66;59.58;102141.84;5073295;28;20213;-58
2022/01/16 00:52:36;;;;;;;14.90;12.27;;;7.00;77.20;;;9.65;59.29;102119.97;5073554;28;20263;-61
2022/01/16 00:55:05;;;;;;;17.37;13.43;;;7.00;77.30;;;9.67;59.85;102101.47;5073476;28;20268;-58
2022/01/16 00:57:34;;;;;;;16.87;13.13;;;7.00;77.60;;;9.62;59.89;102107.13;5073399;28;20568;-61
2022/01/16 01:00:03;;;;;;;14.20;11.97;;;6.90;77.50;;;9.55;59.54;102106.81;5073678;28;20251;-59
2022/01/16 01:02:30;;;;;;;23.10;14.10;;;7.00;77.40;;;9.53;59.69;102100.03;5088500;28;20207;-60
2022/01/16 01:04:58;;;;;;;21.03;12.80;;;6.90;77.60;;;9.56;59.73;102094.50;5072830;28;20291;-60
2022/01/16 01:07:25;;;;;;;15.30;11.93;;;6.90;77.80;;;9.58;59.70;102094.38;5073223;28;20265;-61
2022/01/16 01:09:52;;;;;;;13.87;11.23;;;6.80;77.90;;;9.59;60.01;102114.44;5072973;28;20505;-59
2022/01/16 01:12:30;;;;;;;18.30;12.83;;;6.90;78.00;;;9.56;60.02;102089.25;5072173;28;20194;-63
2022/01/16 01:15:07;;;;;;;15.47;11.33;;;6.90;78.00;;;9.52;60.00;102093.94;5072210;28;20221;-61
2022/01/16 01:17:45;;;;;;;16.30;13.03;;;6.80;78.10;;;9.48;60.46;102082.03;5073426;28;20200;-61
2022/01/16 01:20:16;;;;;;;13.43;10.47;;;6.80;78.90;;;9.50;59.69;102102.94;5073284;28;20185;-58
2022/01/16 01:22:45;;;;;;;21.20;13.63;;;6.80;78.40;;;9.54;59.96;102092.03;5072123;28;20195;-59
2022/01/16 01:25:14;;;;;;;16.17;12.37;;;6.80;78.50;;;9.63;59.67;102100.88;5072932;28;20672;-59
2022/01/16 01:27:43;;;;;;;16.30;13.43;;;6.80;78.80;;;9.70;59.57;102103.81;5088391;28;20192;-60
2022/01/16 01:30:17;;;;;;;21.13;14.67;;;6.80;79.00;;;9.70;59.77;102102.00;5074575;28;20205;-61
2022/01/16 01:32:47;;;;;;;20.87;14.13;;;6.80;78.90;;;9.67;59.83;102096.19;5075185;28;20209;-59
2022/01/16 01:35:18;;;;;;;18.30;13.23;;;6.90;78.80;;;9.65;60.21;102109.47;5076901;28;20201;-59
2022/01/16 01:37:47;;;;;;;17.70;12.33;;;6.90;78.90;;;9.70;60.08;102116.97;5076313;28;20220;-61
2022/01/16 01:40:19;;;;;;;20.27;12.67;;;6.80;79.00;;;9.70;60.15;102117.78;5076809;28;20247;-60
2022/01/16 01:43:02;;;;;;;17.30;11.97;;;6.80;79.00;;;9.69;59.96;102110.88;5076544;28;20196;-61
2022/01/16 01:51:16;;;;;;;25.63;15.03;;;6.80;79.30;;;9.81;59.37;102009.88;5076630;28;20205;-59
2022/01/16 01:53:46;;;;;;;22.87;14.10;;;6.80;79.30;;;9.85;59.58;102003.38;5075944;28;20289;-57
2022/01/16 01:56:17;;;;;;;22.27;14.00;;;6.80;79.50;;;9.87;59.61;102003.22;5076064;28;20521;-60
2022/01/16 01:58:45;;;;;;;20.80;13.30;;;6.80;79.50;;;9.87;59.44;101983.03;5076585;28;20209;-58
2022/01/16 02:01:14;;;;;;;20.83;14.47;;;6.80;79.50;;;9.89;59.31;102017.09;5076061;28;20203;-61
2022/01/16 02:03:42;;;;;;;22.63;15.00;;;6.80;79.60;;;9.92;59.03;102027.31;5091367;28;20213;-61
2022/01/16 02:06:14;;;;;;;19.80;13.90;;;6.90;79.60;;;9.89;59.16;102032.88;5076511;28;20658;-59
2022/01/16 02:08:43;;;;;;;19.70;14.30;;;6.90;79.30;;;9.89;59.46;102038.94;5076401;28;20593;-61
2022/01/16 02:11:12;;;;;;;20.53;14.33;;;6.80;79.40;;;9.91;59.42;102046.69;5075721;28;20302;-59
2022/01/16 02:35:13;;;;;;;22.93;15.67;;;7.00;78.50;;;9.99;58.90;102046.81;5075860;28;20223;-58
2022/01/16 02:37:40;;;;;;;24.57;16.67;;;7.00;78.30;;;10.02;58.45;102051.81;5075840;28;20523;-61
2022/01/16 02:40:18;;;;;;;24.20;14.97;;;7.00;77.80;;;10.00;58.54;102051.13;5075925;28;20223;-60
2022/01/16 02:42:49;;;;;;;23.53;15.13;;;7.00;77.80;;;9.99;58.30;102050.28;5074916;28;20202;-59
2022/01/16 02:45:31;;;;;;;20.57;14.63;;;7.00;77.70;;;9.97;58.21;102051.41;5075520;28;20275;-61
2022/01/16 02:48:02;;;;;;;21.20;14.03;;;7.00;77.60;;;9.94;58.88;102041.97;5074501;28;20270;-59
2022/01/16 02:50:30;;;;;;;22.10;14.67;;;7.00;77.60;;;10.00;58.88;102045.88;5075624;28;20620;-58
2022/01/16 02:52:58;;;;;;;24.17;15.10;;;7.10;77.40;;;10.08;58.67;102048.63;5075053;28;20295;-58
2022/01/16 02:55:28;;;;;;;23.40;15.80;;;7.10;77.50;;;10.10;58.18;102046.69;5091488;28;20310;-58
2022/01/16 02:57:56;;;;;;;24.13;15.97;;;7.10;77.20;;;10.11;58.05;102033.44;5075895;28;20253;-60
2022/01/16 03:00:24;;;;;;;24.00;16.00;;;7.10;77.10;;;10.12;57.94;102021.94;5075161;28;20560;-60
2022/01/16 03:02:52;;;;;;;21.23;14.53;;;7.10;77.00;;;10.13;58.46;102025.38;5074998;28;20216;-60
2022/01/16 03:05:20;;;;;;;22.70;15.63;;;7.10;77.00;;;10.16;58.21;102023.31;5091049;28;20201;-58
2022/01/16 03:07:48;;;;;;;23.37;15.60;;;7.20;76.90;;;10.20;57.78;102023.84;5075524;28;20189;-58
2022/01/16 03:12:51;;;;;;;23.80;16.13;;;7.20;76.50;;;10.23;57.47;102012.22;5073838;28;20208;-58
2022/01/16 03:15:20;;;;;;;20.30;14.33;;;7.20;76.00;;;10.22;57.14;102015.84;5075190;28;20193;-59
2022/01/16 03:23:13;;;;;;;25.53;17.03;;;7.20;75.50;;;10.26;57.17;101997.00;5074670;28;20216;-61
2022/01/16 03:25:40;;;;;;;23.07;15.77;;;7.20;75.70;;;10.26;57.12;102012.78;5075400;28;20192;-61
2022/01/16 03:28:09;;;;;;;25.73;17.27;;;7.20;75.50;;;10.27;56.42;102005.72;5075483;28;20192;-61
2022/01/16 03:30:38;;;;;;;25.73;16.53;;;7.20;75.10;;;10.25;56.78;101987.44;5074774;28;20550;-61
2022/01/16 03:33:05;;;;;;;24.97;16.53;;;7.20;75.10;;;10.26;56.51;101989.09;5073931;28;20217;-58
2022/01/16 03:35:33;;;;;;;24.27;17.43;;;7.20;74.80;;;10.28;56.50;102002.94;5074508;28;20310;-61
2022/01/16 03:38:02;;;;;;;23.47;16.53;;;7.20;74.60;;;10.28;56.53;102008.22;5074677;28;20185;-61
2022/01/16 03:40:30;;;;;;;24.97;17.23;;;7.20;74.70;;;10.31;55.89;101992.16;5073278;28;20280;-61
2022/01/16 03:43:05;;;;;;;27.87;17.83;;;7.20;74.50;;;10.34;56.17;101985.78;5074177;28;20288;-61
2022/01/16 03:45:34;;;;;;;25.17;16.93;;;7.20;74.70;;;10.37;56.12;101981.03;5074878;28;20187;-60
2022/01/16 03:48:01;;;;;;;23.47;16.43;;;7.30;74.50;;;10.41;55.92;101987.66;5074812;28;20549;-60
2022/01/16 03:50:28;;;;;;;31.50;20.47;;;7.30;74.50;;;10.34;55.40;101972.63;5074634;28;20657;-60
2022/01/16 03:52:55;;;;;;;24.40;17.87;;;7.30;74.00;;;10.32;55.32;101975.38;5073752;28;20209;-61
2022/01/16 03:55:23;;;;;;;25.07;17.37;;;7.30;73.70;;;10.29;55.53;101967.78;5074349;28;20193;-59
2022/01/16 03:57:50;;;;;;;26.17;17.47;;;7.30;73.60;;;10.27;55.74;101964.44;5074489;28;20213;-60
2022/01/16 04:00:17;;;;;;;28.13;18.70;;;7.30;73.70;;;10.29;55.82;101969.56;5074261;28;20272;-62
2022/01/16 04:02:46;;;;;;;27.07;18.30;;;7.30;73.50;;;10.31;56.09;101965.84;5073777;28;20654;-59
2022/01/16 04:05:14;;;;;;;25.53;17.30;;;7.30;73.70;;;10.36;55.69;101968.88;5073623;28;20260;-58
2022/01/16 04:07:41;;;;;;;24.83;16.90;;;7.30;73.90;;;10.39;55.88;101973.81;5074079;28;20611;-58
2022/01/16 04:10:10;;;;;;;21.83;16.23;;;7.30;74.00;;;10.41;55.48;101971.06;5072398;28;20620;-61
2022/01/16 04:12:39;;;;;;;26.70;18.93;;;7.30;73.90;;;10.39;55.05;101976.47;5073719;28;20227;-60
2022/01/16 04:17:42;;;;;;;23.47;17.43;;;7.30;74.20;;;10.38;55.46;101982.72;5073877;28;20579;-60
2022/01/16 04:20:15;;;;;;;30.67;19.97;;;7.30;73.30;;;10.37;54.84;101991.56;5089435;28;20193;-61
2022/01/16 04:22:45;;;;;;;25.43;18.23;;;7.30;72.90;;;10.35;54.44;101977.72;5073144;28;20245;-60
2022/01/16 04:25:13;;;;;;;23.00;17.03;;;7.20;72.40;;;10.29;54.76;101982.72;5072432;28;20201;-60
2022/01/16 04:27:41;;;;;;;21.87;16.17;;;7.20;72.20;;;10.24;54.20;101980.53;5074143;28;20185;-62
2022/01/16 04:30:10;;;;;;;26.20;18.40;;;7.20;72.00;;;10.21;55.01;101986.06;5073860;28;20593;-61
2022/01/16 04:32:38;;;;;;;24.07;16.67;;;7.20;72.10;;;10.21;54.90;101986.06;5071803;28;20565;-63
2022/01/16 04:35:07;;;;;;;25.20;17.27;;;7.10;71.90;;;10.21;54.40;101993.97;5074176;28;20194;-60
2022/01/16 04:37:36;;;;;;;24.50;16.57;;;7.20;72.10;;;10.20;54.54;101994.91;5073946;28;20199;-61
2022/01/16 04:40:23;;;;;;;25.97;17.87;;;7.10;71.90;;;10.18;54.68;102002.13;5053358;28;20556;-60
2022/01/16 04:45:36;;;;;;;25.33;17.13;;;7.10;71.40;;;10.03;54.48;102001.69;5053936;28;20206;-61
2022/01/16 04:48:05;;;;;;;31.60;20.30;;;7.10;71.40;;;9.96;53.80;102010.31;5053473;28;20193;-61
2022/01/16 04:50:32;;;;;;;27.97;19.97;;;7.00;71.00;;;9.88;54.00;102015.41;5053329;28;20193;-61
2022/01/16 04:53:00;;;;;;;28.90;20.13;;;7.00;71.10;;;9.79;54.66;102011.81;5051568;28;20718;-62
2022/01/16 04:55:28;;;;;;;31.00;20.20;;;6.90;71.30;;;9.72;54.43;102002.84;5066707;28;20189;-60
2022/01/16 04:57:55;;;;;;;26.63;18.07;;;6.80;71.50;;;9.71;54.83;101997.69;5071985;28;20557;-59
2022/01/16 05:00:23;;;;;;;30.40;19.30;;;6.80;71.60;;;9.72;54.18;101989.69;5073233;28;20201;-59
2022/01/16 05:02:50;;;;;;;33.00;21.47;;;6.80;72.10;;;9.72;54.72;101981.78;5073034;28;20189;-61
2022/01/16 05:05:18;;;;;;;37.07;24.23;;;6.70;72.00;;;9.69;54.63;101994.38;5073086;28;20646;-60
2022/01/16 05:07:45;;;;;;;34.63;23.00;;;6.70;71.90;;;9.63;54.15;101989.69;5072214;28;20191;-60
2022/01/16 05:10:14;;;;;;;38.80;23.77;;;6.70;71.70;;;9.58;54.41;102002.41;5073220;28;20660;-59
2022/01/16 05:12:44;;;;;;;38.67;24.60;;;6.60;71.40;;;9.52;54.66;101994.09;5072528;28;20245;-61
2022/01/16 05:17:58;;;;;;;41.97;26.17;;;6.50;71.50;;;9.40;54.79;101995.19;5073079;28;20193;-60
2022/01/16 05:20:25;;;;;;;41.63;26.63;;;6.50;71.30;;;9.36;54.87;101999.06;5072816;28;20219;-60
2022/01/16 05:22:52;;;;;;;42.10;27.07;;;6.50;71.40;;;9.33;54.42;101991.44;5072396;28;20193;-58
2022/01/16 05:25:21;;;;;;;43.13;26.33;;;6.50;71.70;;;9.32;54.93;101997.63;5072975;28;20698;-63
2022/01/16 05:27:48;;;;;;;40.47;25.90;;;6.40;71.80;;;9.30;54.74;101982.97;5072703;28;20534;-58
2022/01/16 05:30:15;;;;;;;44.27;26.27;;;6.40;71.80;;;9.33;54.73;101980.91;5073896;28;20197;-59
2022/01/16 05:32:43;;;;;;;42.37;26.47;;;6.40;72.10;;;9.38;54.47;101972.63;5072450;28;20254;-59
2022/01/16 05:35:10;;;;;;;46.23;28.10;;;6.40;72.10;;;9.40;54.51;101961.03;5073290;28;20222;-59
2022/01/16 05:37:38;;;;;;;40.97;25.20;;;6.40;72.00;;;9.43;54.93;101963.38;5073108;28;20662;-59
2022/01/16 05:40:06;;;;;;;43.23;25.43;;;6.40;72.20;;;9.51;54.80;101954.78;5072992;28;20296;-63
2022/01/16 05:42:35;;;;;;;39.33;24.73;;;6.40;72.30;;;9.58;54.53;101947.22;5072515;28;20653;-60
2022/01/16 05:45:04;;;;;;;46.07;27.90;;;6.50;72.40;;;9.61;54.10;101950.38;5072632;28;20229;-60
2022/01/16 05:47:31;;;;;;;38.77;24.53;;;6.50;72.00;;;9.61;54.46;101949.53;5072943;28;20196;-55
2022/01/16 05:49:58;;;;;;;44.43;25.87;;;6.50;72.10;;;9.62;54.28;101940.69;5073277;28;20200;-58
2022/01/16 05:52:43;;;;;;;50.33;28.90;;;6.50;72.20;;;9.65;54.57;101927.28;5072464;28;20201;-58
2022/01/16 05:55:11;;;;;;;40.90;25.50;;;6.50;71.90;;;9.68;54.37;101934.88;5073004;28;20245;-61
2022/01/16 05:57:41;;;;;;;54.13;30.23;;;6.50;72.20;;;9.68;53.94;101927.81;5072516;28;20223;-61
2022/01/16 06:00:12;;;;;;;37.03;25.20;;;6.50;72.20;;;9.66;54.66;101927.13;5072464;28;20193;-61
2022/01/16 06:02:40;;;;;;;47.83;26.17;;;6.50;72.40;;;9.69;54.27;101920.78;5072285;28;20198;-58
2022/01/16 06:05:09;;;;;;;46.20;29.07;;;6.50;72.50;;;9.65;54.22;101919.41;5088605;28;20243;-60
2022/01/16 06:07:37;;;;;;;47.20;28.10;;;6.60;72.30;;;9.52;54.77;101920.50;5072715;28;20182;-60
2022/01/16 06:10:05;;;;;;;52.33;28.77;;;6.60;71.90;;;9.41;55.08;101918.00;5072549;28;20196;-60
2022/01/16 06:12:33;;;;;;;43.00;27.60;;;6.60;72.00;;;9.43;54.75;101910.00;5072034;28;20210;-58
2022/01/16 06:15:04;;;;;;;44.17;26.40;;;6.60;72.20;;;9.50;54.91;101911.09;5073018;28;20211;-57
2022/01/16 06:17:32;;;;;;;47.00;27.90;;;6.60;72.50;;;9.54;55.35;101913.31;5075202;28;20204;-60
2022/01/16 06:19:59;;;;;;;47.77;28.13;;;6.50;72.40;;;9.59;54.70;101910.25;5076463;28;20194;-59
2022/01/16 06:22:27;;;;;;;46.07;25.90;;;6.60;72.80;;;9.62;55.19;101911.78;5075838;28;20690;-56
2022/01/16 06:24:54;;;;;;;53.40;30.70;;;6.60;73.00;;;9.59;55.15;101909.44;5074943;28;20296;-61
2022/01/16 06:27:21;;;;;;;46.67;27.57;;;6.60;72.80;;;9.59;55.44;101919.94;5076101;28;20185;-60
2022/01/16 06:29:49;;;;;;;43.60;26.93;;;6.60;72.80;;;9.63;55.11;101923.97;5075811;28;20286;-62
2022/01/16 06:32:17;;;;;;;45.67;27.77;;;6.60;72.90;;;9.67;55.30;101920.91;5075596;28;20234;-61
2022/01/16 06:34:45;;;;;;;43.97;26.57;;;6.70;73.10;;;9.71;55.41;101917.03;5075167;28;20240;-61
2022/01/16 06:37:13;;;;;;;51.00;28.77;;;6.70;73.20;;;9.66;54.84;101910.53;5075816;28;20189;-61
2022/01/16 06:39:40;;;;;;;48.63;29.03;;;6.70;72.90;;;9.61;55.03;101912.75;5074773;28;20197;-57
2022/01/16 06:42:08;;;;;;;54.90;30.70;;;6.60;72.80;;;9.60;55.01;101905.84;5075667;28;20182;-61
2022/01/16 06:44:41;;;;;;;50.07;29.37;;;6.60;73.10;;;9.60;55.13;101905.84;5074143;28;20256;-58
2022/01/16 06:47:09;;;;;;;59.47;32.00;;;6.60;73.40;;;9.62;55.69;101915.25;5075541;28;20225;-62
2022/01/16 06:49:38;;;;;;;60.63;31.03;;;6.50;73.60;;;9.61;55.14;101913.56;5075711;28;20258;-61
2022/01/16 06:52:06;;;;;;;58.83;31.17;;;6.60;73.70;;;9.54;55.08;101907.22;5075454;28;20209;-60
2022/01/16 06:54:33;;;;;;;53.47;31.20;;;6.60;73.50;;;9.43;55.86;101900.31;5075169;28;20209;-61
2022/01/16 06:57:01;;;;;;;55.70;31.20;;;6.60;73.40;;;9.34;56.20;101906.38;5075335;28;20568;-60
2022/01/16 06:59:28;;;;;;;58.93;32.53;;;6.60;73.30;;;9.21;56.81;101911.09;5073991;28;20672;-61
2022/01/16 07:01:55;;;;;;;61.57;33.03;;;6.60;73.60;;;9.12;56.51;101906.66;5073553;28;20200;-60
2022/01/16 07:04:23;;;;;;;48.17;28.67;;;6.50;73.60;;;9.09;56.84;101911.34;5075085;28;20226;-58
2022/01/16 07:06:52;;;;;;;60.70;32.10;;;6.50;73.90;;;9.11;56.98;101915.47;5075252;28;20193;-60
2022/01/16 07:09:19;;;;;;;53.97;32.07;;;6.50;74.20;;;9.11;57.11;101920.75;5075260;28;20195;-60
2022/01/16 07:11:47;;;;;;;61.43;33.47;;;6.40;74.30;;;9.10;57.14;101919.09;5074969;28;20212;-62
2022/01/16 07:14:15;;;;;;;60.77;34.30;;;6.40;74.40;;;9.10;57.38;101921.72;5074853;28;20212;-60
2022/01/16 07:16:42;;;;;;;55.53;30.07;;;6.40;74.60;;;9.15;57.38;101926.56;5074781;28;20604;-61
2022/01/16 07:19:10;;;;;;;55.60;32.43;;;6.40;74.90;;;9.22;57.57;101933.75;5075107;28;20647;-58
2022/01/16 07:21:37;;;;;;;65.50;32.70;;;6.40;75.00;;;9.26;57.31;101929.91;5073764;28;20319;-63
2022/01/16 07:24:06;;;;;;;62.40;33.17;;;6.40;75.20;;;9.30;57.45;101926.03;5074582;28;20237;-61
2022/01/16 07:26:34;;;;;;;59.37;32.63;;;6.40;75.50;;;9.37;57.02;101926.28;5074712;28;20272;-61
2022/01/16 07:29:01;;;;;;;53.13;31.47;;;6.40;75.60;;;9.42;56.96;101922.28;5074255;28;20202;-61
2022/01/16 07:31:28;;;;;;;56.50;30.17;;;6.40;75.60;;;9.45;57.37;101929.06;5074556;28;20196;-60
2022/01/16 07:33:58;;;;;;;63.37;35.07;;;6.50;75.70;;;9.50;57.40;101938.22;5073843;28;20273;-62
2022/01/16 07:36:25;;;;;;;57.53;32.37;;;6.50;75.80;;;9.55;57.25;101941.22;5074482;28;20207;-61
2022/01/16 07:38:53;;;;;;;55.03;30.47;;;6.40;76.00;;;9.57;56.59;101953.41;5074587;28;20280;-61
2022/01/16 07:41:21;;;;;;;55.77;30.83;;;6.40;76.10;;;9.57;56.76;101956.03;5074488;28;20185;-60
2022/01/16 07:43:49;;;;;;;55.77;29.57;;;6.50;76.30;;;9.58;57.13;101945.38;5089524;28;20251;-61
2022/01/16 07:46:17;;;;;;;53.20;28.83;;;6.50;76.50;;;9.64;57.41;101944.00;5074133;28;20185;-59
2022/01/16 07:48:45;;;;;;;57.97;30.83;;;6.50;76.50;;;9.64;57.27;101938.75;5073242;28;20204;-61
2022/01/16 07:51:12;;;;;;;57.73;30.73;;;6.60;76.40;;;9.62;57.59;101940.69;5074516;28;20195;-59
2022/01/16 07:53:39;;;;;;;53.77;29.10;;;6.60;76.20;;;9.64;57.21;101946.63;5073685;28;20231;-60
2022/01/16 07:56:07;;;;;;;60.00;31.00;;;6.60;76.30;;;9.61;56.98;101950.38;5074295;28;20193;-58
2022/01/16 07:58:36;;;;;;;50.13;27.77;;;6.60;76.00;;;9.61;57.49;101941.66;5074186;28;20195;-62
2022/01/16 08:01:04;;;;;;;53.30;29.33;;;6.70;76.10;;;9.63;57.35;101942.38;5073822;28;20251;-60
2022/01/16 08:03:32;;;;;;;55.80;28.97;;;6.70;76.20;;;9.64;57.61;101951.91;5073225;28;20213;-58
2022/01/16 08:05:59;;;;;;;57.20;31.63;;;6.70;75.90;;;9.70;57.61;101946.91;5073722;28;20196;-59
2022/01/16 08:08:27;;;;;;;53.27;29.30;;;6.70;76.00;;;9.72;57.71;101931.84;5074308;28;20200;-58
2022/01/16 08:10:54;;;;;;;54.30;29.10;;;6.70;76.80;;;9.77;57.17;101940.13;5073841;28;20272;-60
2022/01/16 08:13:22;;;;;;;57.30;31.17;;;6.80;76.10;;;9.72;57.52;101942.38;5072223;28;20225;-60
2022/01/16 08:15:50;;;;;;;58.03;29.40;;;6.80;75.90;;;9.64;57.56;101941.38;5074043;28;20191;-60
2022/01/16 08:18:18;;;;;;;52.80;29.67;;;6.90;75.70;;;9.67;57.49;101938.47;5073626;28;20276;-60
2022/01/16 08:20:45;;;;;;;56.00;30.40;;;6.80;75.90;;;9.69;58.04;101936.53;5074073;28;20264;-59
2022/01/16 08:23:13;;;;;;;54.40;28.43;;;6.80;76.00;;;9.74;57.86;101944.84;5072891;28;20297;-60
2022/01/16 08:25:41;;;;;;;52.73;30.50;;;6.80;76.00;;;9.76;57.57;101937.66;5073857;28;20264;-58
2022/01/16 08:28:08;;;;;;;54.17;30.80;;;6.80;76.00;;;9.79;57.23;101942.63;5073748;28;20197;-63
2022/01/16 08:30:36;;;;;;;53.73;30.93;;;6.90;76.10;;;9.80;57.81;101934.59;5073564;28;20193;-62
2022/01/16 08:33:05;;;;;;;50.07;29.30;;;6.80;76.10;;;9.82;57.78;101934.44;5072684;28;20585;-61
2022/01/16 08:35:32;;;;;;;53.83;28.83;;;6.90;76.40;;;9.83;57.74;101923.81;5072487;28;20227;-57
2022/01/16 08:37:59;;;;;;;55.57;31.60;;;6.80;76.50;;;9.83;58.17;101922.97;5073610;28;20224;-61
2022/01/16 08:40:26;;;;;;;55.40;29.90;;;6.90;76.50;;;9.78;58.19;101922.56;5071671;28;20203;-58
2022/01/16 08:42:54;;;;;;;55.27;30.17;;;6.90;76.50;;;9.81;57.92;101931.00;5073098;28;20188;-58
2022/01/16 08:45:21;;;;;;;52.00;27.70;;;6.90;76.40;;;9.87;57.75;101929.59;5073680;28;20221;-59
2022/01/16 08:47:48;;;;;;;53.70;29.27;;;6.90;76.70;;;9.91;57.37;101925.75;5073545;28;20216;-60
2022/01/16 08:50:17;;;;;;;52.33;28.67;;;6.90;76.90;;;9.95;57.77;101929.72;5073290;28;20185;-60
2022/01/16 08:52:45;;;;;;;55.47;29.17;;;6.90;76.90;;;9.99;57.33;101928.47;5072685;28;20299;-58
2022/01/16 08:55:13;;;;;;;49.60;28.50;;;6.90;76.90;;;9.99;57.89;101939.00;5071549;28;20642;-58
2022/01/16 08:57:40;;;;;;;51.70;28.87;;;6.90;76.80;;;10.02;57.34;101930.81;5073688;28;20193;-58
2022/01/16 09:00:10;;;;;;;54.50;28.40;;;6.90;76.90;;;10.03;57.36;101935.13;5073273;28;20191;-60
2022/01/16 09:02:38;;;;;;;46.27;25.83;;;7.00;76.90;;;10.02;57.77;101933.47;5071589;28;20616;-59
2022/01/16 09:05:06;;;;;;;46.67;26.70;;;7.00;76.90;;;10.01;57.87;101929.16;5072988;28;20222;-61
2022/01/16 09:07:35;;;;;;;47.47;27.93;;;7.00;76.70;;;9.99;57.45;101931.09;5072666;28;20629;-60
2022/01/16 09:10:05;;;;;;;52.33;28.30;;;7.00;76.80;;;10.00;57.68;101932.78;5073279;28;20744;-55
2022/01/16 09:12:33;;;;;;;54.37;29.53;;;7.00;76.90;;;10.01;57.66;101940.50;5071163;28;20218;-61
2022/01/16 09:15:01;;;;;;;47.37;26.20;;;7.00;76.90;;;9.98;57.99;101943.41;5073279;28;20259;-61
2022/01/16 09:17:28;;;;;;;43.93;25.90;;;7.00;77.20;;;9.99;58.12;101939.84;5073223;28;20676;-59
2022/01/16 09:19:56;;;;;;;47.90;26.80;;;7.00;77.40;;;10.04;57.87;101947.28;5071743;28;20211;-58
2022/01/16 09:22:23;;;;;;;55.30;28.33;;;7.00;77.60;;;10.08;58.04;101948.66;5072659;28;20197;-59
2022/01/16 09:24:52;;;;;;;48.37;26.97;;;7.00;77.40;;;10.06;57.66;101946.19;5073302;28;20633;-59
2022/01/16 09:27:19;;;;;;;56.97;29.23;;;7.00;77.50;;;9.99;57.84;101950.34;5072454;28;20185;-61
2022/01/16 09:29:47;;;;;;;41.30;24.77;;;7.00;77.60;;;10.00;58.18;101948.56;5072784;28;20263;-60
2022/01/16 09:32:16;;;;;;;44.13;25.23;;;7.00;77.80;;;10.03;57.97;101953.53;5072504;28;20629;-57
2022/01/16 09:34:43;;;;;;;42.43;24.73;;;7.00;77.80;;;10.02;58.05;101949.25;5072470;28;20666;-57
2022/01/16 09:37:11;;;;;;;41.10;24.63;;;7.00;77.80;;;10.02;58.73;101951.88;5072847;28;20277;-58
2022/01/16 09:39:40;;;;;;;45.93;26.43;;;7.00;77.90;;;10.03;58.63;101946.47;5072775;28;20654;-57
2022/01/16 09:42:10;;;;;;;42.50;24.67;;;7.00;78.00;;;10.07;58.43;101947.03;5072689;28;20189;-60
2022/01/16 09:44:39;;;;;;;45.73;24.63;;;7.00;78.00;;;10.13;58.61;101946.47;5072154;28;20217;-60
2022/01/16 09:47:09;;;;;;;43.20;24.27;;;7.00;78.20;;;10.15;58.06;101950.63;5072992;28;20192;-58
2022/01/16 09:49:37;;;;;;;40.87;22.70;;;7.10;78.20;;;10.19;57.98;101956.44;5071927;28;20319;-61
2022/01/16 09:52:05;;;;;;;40.70;24.83;;;7.10;78.20;;;10.25;57.84;101955.03;5074187;28;20216;-61
2022/01/16 09:54:35;;;;;;;40.47;25.03;;;7.10;78.20;;;10.30;58.12;101963.31;5075931;28;20243;-61
2022/01/16 09:57:03;;;;;;;40.10;24.50;;;7.10;78.20;;;10.29;58.06;101959.88;5076603;28;20182;-61
2022/01/16 09:59:32;;;;;;;42.90;24.67;;;7.10;78.40;;;10.28;58.43;101955.59;5076540;28;20279;-62
2022/01/16 10:01:59;;;;;;;43.83;24.67;;;7.10;78.30;;;10.31;58.08;101957.09;5075485;28;20216;-59
2022/01/16 10:04:35;;;;;;;43.37;24.10;;;7.10;78.40;;;10.28;57.86;101960.84;5075972;28;20201;-62
2022/01/16 10:07:06;;;;;;;37.17;21.97;;;7.10;78.40;;;10.32;58.34;101956.16;5076168;28;20375;-60
2022/01/16 10:09:37;;;;;;;42.93;24.03;;;7.20;78.50;;;10.33;58.50;101963.88;5076185;28;20526;-61
2022/01/16 10:12:18;;;;;;;40.50;24.13;;;7.20;78.50;;;10.32;58.03;101956.94;5074826;28;20217;-61
2022/01/16 10:14:51;;;;;;;38.57;23.50;;;7.20;78.40;;;10.30;58.61;101961.53;5075936;28;20573;-61
2022/01/16 10:17:25;;;;;;;47.13;24.73;;;7.20;78.40;;;10.31;57.87;101955.31;5075694;28;20216;-58
2022/01/16 10:19:59;;;;;;;46.37;26.00;;;7.20;78.20;;;10.31;58.24;101955.31;5074887;28;20197;-61
2022/01/16 10:22:38;;;;;;;43.77;24.80;;;7.20;78.20;;;10.30;57.90;101956.28;5075345;28;20272;-59
2022/01/16 10:25:07;;;;;;;41.97;23.97;;;7.30;78.30;;;10.32;58.75;101969.31;5091623;28;20193;-60
2022/01/16 10:27:37;;;;;;;44.33;24.67;;;7.30;78.20;;;10.31;58.05;101957.94;5075116;28;20217;-61
2022/01/16 10:30:12;;;;;;;46.87;26.20;;;7.30;78.30;;;10.29;58.78;101953.78;5075978;28;20185;-60
2022/01/16 10:32:42;;;;;;;48.20;26.07;;;7.30;78.20;;;10.32;58.61;101951.69;5075087;28;20216;-61
2022/01/16 10:35:15;;;;;;;41.97;23.80;;;7.30;78.40;;;10.34;58.34;101955.00;5075856;28;20186;-62
2022/01/16 10:37:46;;;;;;;39.30;23.73;;;7.30;78.40;;;10.40;58.20;101958.88;5076040;28;20243;-60
2022/01/16 10:40:16;;;;;;;45.47;27.20;;;7.30;78.40;;;10.42;58.42;101952.50;5075123;28;20193;-61
2022/01/16 10:42:50;;;;;;;41.37;25.20;;;7.30;78.20;;;10.42;58.00;101963.03;5075079;28;20205;-59
2022/01/16 10:45:25;;;;;;;48.73;26.67;;;7.30;78.20;;;10.45;58.02;101957.47;5075504;28;20649;-61
2022/01/16 10:47:55;;;;;;;49.37;28.50;;;7.40;78.30;;;10.49;58.62;101958.00;5076052;28;20193;-60
2022/01/16 10:50:25;;;;;;;48.83;28.33;;;7.40;78.20;;;10.47;57.85;101955.53;5075213;28;20204;-57
2022/01/16 10:52:59;;;;;;;41.77;25.67;;;7.40;78.10;;;10.46;58.14;101964.38;5075160;28;20221;-57
2022/01/16 10:55:38;;;;;;;50.60;26.70;;;7.40;78.00;;;10.48;58.36;101959.84;5076139;28;20592;-60
2022/01/16 10:58:09;;;;;;;49.27;27.07;;;7.50;78.10;;;10.55;58.16;101954.81;5074187;28;20199;-60
2022/01/16 11:00:41;;;;;;;50.70;27.57;;;7.50;78.10;;;10.57;57.77;101966.88;5074995;28;20195;-60
2022/01/16 11:03:11;;;;;;;47.67;29.13;;;7.50;78.10;;;10.59;57.88;101957.00;5072735;28;20208;-60